This is the latest recevied weather packets stored in our database for station/object EA1RCG-11. If no packets are shown the sender has not sent any weather packets the latest 1 day(s).
| Time | Temp. | Humidity | Pressure | Rain* | Wind** | Luminosity | Snow |
|---|---|---|---|---|---|---|---|
| 1778088886 | 17.22° C | 61% | 977.3 hPa | - | - | - | - |
| 1778078085 | 19.44° C | 60% | 977.2 hPa | - | - | - | - |
| 1778076285 | 18.33° C | 61% | 977.5 hPa | - | - | - | - |
| 1778074485 | 19.44° C | 60% | 977.7 hPa | - | - | - | - |
| 1778072685 | 21.67° C | 56% | 977.7 hPa | - | - | - | - |
| 1778070885 | 23.33° C | 54% | 978.1 hPa | - | - | - | - |
| 1778067285 | 22.78° C | 55% | 978.7 hPa | - | - | - | - |
| 1778060084 | 23.89° C | 54% | 978.9 hPa | - | - | - | - |
| 1778058284 | 34.44° C | 41% | 978.6 hPa | - | - | - | - |
| 1778056484 | 27.78° C | 47% | 978.9 hPa | - | - | - | - |
| 1778054684 | 26.67° C | 47% | 979.3 hPa | - | - | - | - |
| 1778052884 | 20° C | 56% | 979 hPa | - | - | - | - |
| 1778051084 | 30° C | 42% | 979.4 hPa | - | - | - | - |
| 1778047483 | 11.67° C | 67% | 979.3 hPa | - | - | - | - |
| 1778043883 | 11.67° C | 69% | 979.1 hPa | - | - | - | - |
| 1778042083 | 11.67° C | 68% | 979.1 hPa | - | - | - | - |
| 1778040283 | 11.11° C | 69% | 979.1 hPa | - | - | - | - |
| 1778038483 | 11.67° C | 68% | 979.2 hPa | - | - | - | - |
| 1778036683 | 11.67° C | 69% | 979.4 hPa | - | - | - | - |
| 1778034882 | 12.22° C | 68% | 979.3 hPa | - | - | - | - |
| 1778031282 | 12.22° C | 68% | 979.5 hPa | - | - | - | - |
| 1778029482 | 12.22° C | 68% | 979.8 hPa | - | - | - | - |
| 1778020482 | 11.67° C | 69% | 980.4 hPa | - | - | - | - |
| 1778018682 | 12.78° C | 68% | 980.4 hPa | - | - | - | - |
| 1778004281 | 15.56° C | 64% | 979.2 hPa | - | - | - | - |
* Rain since midnight (hover to see other rain measurements)
** Current wind speed in m/s (hover to see current wind gust speed)